createdAt,value
2022-10-07T05:19:58.300Z,9.43
2022-10-07T05:22:49.096Z,9.40
2022-10-07T05:26:02.131Z,9.37
2022-10-07T05:29:20.865Z,9.36
2022-10-07T05:32:17.940Z,9.33
2022-10-07T05:35:19.864Z,9.30
2022-10-07T05:38:08.843Z,9.19
2022-10-07T05:41:07.130Z,9.11
2022-10-07T05:43:56.981Z,9.08
2022-10-07T05:46:43.724Z,9.07
2022-10-07T05:49:31.433Z,9.06
2022-10-07T05:52:22.517Z,9.07
2022-10-07T05:55:09.465Z,9.06
2022-10-07T05:57:56.445Z,9.04
2022-10-07T06:00:50.928Z,9.03
2022-10-07T06:03:38.719Z,9.00
2022-10-07T06:06:30.132Z,9.00
2022-10-07T06:09:35.702Z,8.97
2022-10-07T06:12:41.358Z,8.94
2022-10-07T06:15:29.735Z,8.91
2022-10-07T06:18:16.533Z,8.89
2022-10-07T06:21:03.493Z,8.88
2022-10-07T06:23:54.282Z,8.87
2022-10-07T06:26:44.061Z,8.88
2022-10-07T06:29:30.796Z,8.86
2022-10-07T06:32:17.529Z,8.86
2022-10-07T06:35:06.547Z,8.87
2022-10-07T06:37:53.419Z,8.87
2022-10-07T06:40:40.079Z,8.86
2022-10-07T06:43:27.116Z,8.86
2022-10-07T06:46:14.956Z,8.85
2022-10-07T06:49:02.179Z,8.84
2022-10-07T06:52:05.986Z,8.85
2022-10-07T06:55:01.351Z,8.85
2022-10-07T06:57:48.188Z,8.86
2022-10-07T07:00:35.039Z,8.86
2022-10-07T07:03:21.894Z,8.86
2022-10-07T07:06:09.120Z,8.87
2022-10-07T07:08:56.223Z,8.88
2022-10-07T07:11:45.153Z,8.88
2022-10-07T07:14:34.812Z,8.91
2022-10-07T07:17:21.502Z,8.90
2022-10-07T07:20:08.912Z,8.92
2022-10-07T07:22:55.648Z,8.94
2022-10-07T07:25:46.166Z,8.95
2022-10-07T07:28:33.413Z,8.97
2022-10-07T07:31:20.381Z,8.98
2022-10-07T07:34:11.267Z,8.98
2022-10-07T07:36:58.039Z,8.98
2022-10-07T07:39:44.727Z,9.00
2022-10-07T07:42:31.354Z,9.00
2022-10-07T07:45:18.304Z,9.00
2022-10-07T07:48:06.898Z,9.02
2022-10-07T07:50:54.300Z,9.03
2022-10-07T07:53:41.075Z,9.04
2022-10-07T07:56:33.328Z,9.06
2022-10-07T07:59:20.096Z,9.08
2022-10-07T08:02:07.265Z,9.13
2022-10-07T08:04:54.009Z,9.16
2022-10-07T08:07:40.778Z,9.20
2022-10-07T08:10:27.525Z,9.27
2022-10-07T08:13:14.174Z,9.35
2022-10-07T08:16:05.934Z,9.46
2022-10-07T08:18:53.080Z,9.61
2022-10-07T08:21:40.455Z,9.79
2022-10-07T08:24:27.856Z,9.94
2022-10-07T08:27:14.560Z,10.06
2022-10-07T08:30:02.330Z,10.21
2022-10-07T08:32:52.693Z,10.32
2022-10-07T08:35:40.092Z,10.46
2022-10-07T08:38:40.256Z,10.59
2022-10-07T08:41:45.904Z,10.74
2022-10-07T08:44:33.591Z,10.91
2022-10-07T08:47:26.475Z,11.04
2022-10-07T08:50:21.207Z,11.16
2022-10-07T08:53:08.805Z,11.28
2022-10-07T08:55:56.262Z,11.42
2022-10-07T08:59:11.030Z,11.55
2022-10-07T09:02:02.944Z,11.69
2022-10-07T09:04:55.824Z,11.79
2022-10-07T09:07:48.089Z,11.89
2022-10-07T09:10:44.955Z,12.00
2022-10-07T09:13:33.567Z,12.14
2022-10-07T09:16:24.075Z,12.23
2022-10-07T09:19:38.229Z,12.33
2022-10-07T09:22:40.482Z,12.41
2022-10-07T09:25:28.098Z,12.51
2022-10-07T09:28:15.686Z,12.60
2022-10-07T09:31:14.114Z,12.68
2022-10-07T09:34:06.773Z,12.78
2022-10-07T09:37:14.987Z,12.92
2022-10-07T09:40:33.691Z,13.10
2022-10-07T09:43:20.624Z,13.24
2022-10-07T09:46:10.899Z,13.32
2022-10-07T09:49:22.245Z,13.40
2022-10-07T09:52:14.821Z,13.49
2022-10-07T09:55:20.322Z,13.61
2022-10-07T09:58:19.735Z,13.73
2022-10-07T10:01:12.420Z,13.83
2022-10-07T10:04:00.330Z,13.92
2022-10-07T10:10:31.266Z,14.15
2022-10-07T10:13:28.474Z,14.29
2022-10-07T10:16:37.526Z,14.44
2022-10-07T10:19:25.277Z,14.58
2022-10-07T10:22:25.400Z,14.72
2022-10-07T10:25:30.810Z,14.86
2022-10-07T10:28:50.498Z,14.99
2022-10-07T10:35:28.468Z,15.35
2022-10-07T10:38:35.400Z,15.60
2022-10-07T10:41:28.754Z,15.79
2022-10-07T10:44:24.077Z,15.97
2022-10-07T10:47:30.493Z,16.08
2022-10-07T10:50:20.974Z,16.21
2022-10-07T10:53:35.010Z,16.30
2022-10-07T10:56:38.112Z,16.40
2022-10-07T10:59:46.103Z,16.46
2022-10-07T11:02:38.950Z,16.57
2022-10-07T11:05:27.464Z,16.64
2022-10-07T11:08:17.058Z,16.70
2022-10-07T11:11:08.863Z,16.74
2022-10-07T11:14:02.064Z,16.79
2022-10-07T11:16:56.613Z,16.81
2022-10-07T11:19:47.010Z,16.85
2022-10-07T11:22:41.218Z,16.88
2022-10-07T11:25:36.452Z,16.92
2022-10-07T11:28:24.879Z,16.95
2022-10-07T11:31:32.339Z,17.01
2022-10-07T11:34:20.305Z,17.07
2022-10-07T11:37:15.944Z,17.14
2022-10-07T11:40:06.448Z,17.19
2022-10-07T11:42:53.133Z,17.27
2022-10-07T11:45:42.393Z,17.33
2022-10-07T11:48:42.666Z,17.36
2022-10-07T11:51:30.816Z,17.44
2022-10-07T11:54:22.267Z,17.49
2022-10-07T11:57:17.665Z,17.55
2022-10-07T12:00:08.063Z,17.60
2022-10-07T12:02:55.736Z,17.64
2022-10-07T12:05:55.365Z,17.66
2022-10-07T12:08:42.398Z,17.69
2022-10-07T12:11:35.242Z,17.72
2022-10-07T12:14:40.864Z,17.78
2022-10-07T12:17:29.097Z,17.83
2022-10-07T12:20:37.413Z,17.86
2022-10-07T12:23:25.606Z,17.87
2022-10-07T12:26:30.696Z,17.91
2022-10-07T12:29:22.428Z,17.93
2022-10-07T12:32:31.765Z,17.93
2022-10-07T12:35:33.439Z,17.95
2022-10-07T12:38:25.816Z,17.98
2022-10-07T12:41:12.455Z,18.00
2022-10-07T12:44:06.208Z,18.01
2022-10-07T12:46:54.660Z,18.03
2022-10-07T12:49:43.537Z,18.05
2022-10-07T12:52:36.185Z,18.07
2022-10-07T12:55:36.355Z,18.08
2022-10-07T12:59:00.759Z,18.10
2022-10-07T13:01:50.651Z,18.13
2022-10-07T13:04:43.274Z,18.14
2022-10-07T13:07:48.780Z,18.18
2022-10-07T13:10:47.576Z,18.21
2022-10-07T13:13:36.742Z,18.24
2022-10-07T13:16:27.174Z,18.29
2022-10-07T13:19:16.951Z,18.32
2022-10-07T13:22:13.763Z,18.34
2022-10-07T13:25:03.151Z,18.34
2022-10-07T13:27:52.398Z,18.37
2022-10-07T13:30:42.239Z,18.39
2022-10-07T13:33:34.399Z,18.41
2022-10-07T13:36:21.116Z,18.45
2022-10-07T13:39:11.653Z,18.47
2022-10-07T13:41:58.813Z,18.49
2022-10-07T13:44:45.460Z,18.55
2022-10-07T13:47:33.835Z,18.57
2022-10-07T13:50:26.097Z,18.58
2022-10-07T13:53:25.164Z,18.59
2022-10-07T13:56:32.076Z,18.61
2022-10-07T13:59:18.819Z,18.62
2022-10-07T14:02:07.484Z,18.63
2022-10-07T14:05:05.100Z,18.66
2022-10-07T14:07:53.630Z,18.67
2022-10-07T14:10:53.365Z,18.68
2022-10-07T14:13:42.510Z,18.70
2022-10-07T14:16:29.186Z,18.70
2022-10-07T14:19:20.725Z,18.73
2022-10-07T14:22:14.577Z,18.74
2022-10-07T14:25:01.627Z,18.72
2022-10-07T14:27:55.705Z,18.72
2022-10-07T14:31:01.222Z,18.72
2022-10-07T14:34:08.505Z,18.71
2022-10-07T14:37:05.788Z,18.70
2022-10-07T14:39:53.086Z,18.70
2022-10-07T14:42:39.742Z,18.69
2022-10-07T14:45:26.423Z,18.70
2022-10-07T14:48:13.713Z,18.68
2022-10-07T14:51:03.441Z,18.67
2022-10-07T14:53:51.114Z,18.65
2022-10-07T14:56:38.212Z,18.64
2022-10-07T14:59:24.877Z,18.64
2022-10-07T15:02:11.520Z,18.64
2022-10-07T15:04:58.256Z,18.63
2022-10-07T15:07:45.082Z,18.60
2022-10-07T15:10:33.290Z,18.58
2022-10-07T15:13:20.057Z,18.57
2022-10-07T15:16:09.907Z,18.56
2022-10-07T15:18:59.253Z,18.55
2022-10-07T15:21:46.036Z,18.54
2022-10-07T15:24:33.209Z,18.52
2022-10-07T15:27:22.619Z,18.51
2022-10-07T15:30:10.980Z,18.50
2022-10-07T15:33:01.317Z,18.49
2022-10-07T15:35:47.974Z,18.48
2022-10-07T15:38:34.726Z,18.46
2022-10-07T15:41:28.508Z,18.43
2022-10-07T15:44:16.241Z,18.42
2022-10-07T15:47:03.120Z,18.40
2022-10-07T15:49:49.828Z,18.38
2022-10-07T15:52:36.497Z,18.36
2022-10-07T15:55:23.173Z,18.34
2022-10-07T15:58:09.887Z,18.31
2022-10-07T16:00:56.535Z,18.28
2022-10-07T16:03:44.171Z,18.27
2022-10-07T16:06:32.859Z,18.23
2022-10-07T16:09:19.894Z,18.22
2022-10-07T16:12:06.753Z,18.19
2022-10-07T16:14:53.494Z,18.15
2022-10-07T16:17:40.202Z,18.13
2022-10-07T16:20:27.001Z,18.10
2022-10-07T16:23:13.690Z,18.07
2022-10-07T16:26:10.367Z,18.03
2022-10-07T16:29:16.768Z,18.00
2022-10-07T16:32:03.822Z,17.95
2022-10-07T16:34:52.565Z,17.92
2022-10-07T16:37:42.463Z,17.89
2022-10-07T16:40:32.070Z,17.86
2022-10-07T16:43:20.930Z,17.82
2022-10-07T16:46:11.340Z,17.79
2022-10-07T16:48:58.487Z,17.74
